Time;durP1;ratioP1;P1;durP2;ratioP2;P2;SDS_P1;SDS_P2;PMS_P1;PMS_P2;Temp;Humidity;BMP_temperature;BMP_pressure;BME280_temperature;BME280_humidity;BME280_pressure;Samples;Min_cycle;Max_cycle;Signal;HPM_P1;HPM_P2
2022/01/27 00:02:30;;;;;;;6.28;3.25;;;;;;;;;;5002530;28;20069;-55
2022/01/27 00:04:37;;;;;;;10.90;3.90;;;;;;;;;;4986815;28;20424;-56
2022/01/27 00:07:03;;;;;;;8.38;3.38;;;;;;;;;;4998406;28;20041;-56
2022/01/27 00:12:03;;;;;;;7.07;3.05;;;;;;;;;;4999967;28;20401;-54
2022/01/27 00:14:29;;;;;;;5.47;3.13;;;;;;;;;;5004551;28;20053;-57
2022/01/27 00:16:58;;;;;;;5.18;2.58;;;;;;;;;;5001227;28;20397;-56
2022/01/27 00:19:24;;;;;;;3.78;2.42;;;;;;;;;;5001786;28;20049;-56
2022/01/27 00:21:49;;;;;;;4.40;2.70;;;;;;;;;;4999765;28;20034;-56
2022/01/27 00:24:15;;;;;;;7.43;3.20;;;;;;;;;;5001591;28;20087;-55
2022/01/27 00:26:41;;;;;;;2.75;1.73;;;;;;;;;;4984945;28;20449;-56
2022/01/27 00:29:07;;;;;;;4.05;1.77;;;;;;;;;;5000538;28;20058;-56
2022/01/27 00:31:32;;;;;;;3.55;1.55;;;;;;;;;;5002810;28;20041;-56
2022/01/27 00:34:03;;;;;;;3.33;2.00;;;;;;;;;;4999517;28;20057;-55
2022/01/27 00:36:29;;;;;;;3.45;1.90;;;;;;;;;;5001959;28;20485;-56
2022/01/27 00:38:54;;;;;;;4.75;1.88;;;;;;;;;;4998936;28;20036;-57
2022/01/27 00:41:21;;;;;;;4.85;2.40;;;;;;;;;;5001744;28;20033;-56
2022/01/27 00:43:48;;;;;;;3.35;1.92;;;;;;;;;;5002262;28;20030;-55
2022/01/27 00:46:16;;;;;;;6.55;1.77;;;;;;;;;;4999024;28;20029;-53
2022/01/27 00:48:47;;;;;;;3.45;1.60;;;;;;;;;;4997111;28;20400;-56
2022/01/27 00:51:20;;;;;;;2.67;1.48;;;;;;;;;;4997965;28;20044;-54
2022/01/27 00:53:54;;;;;;;3.83;1.35;;;;;;;;;;5001332;28;20028;-53
2022/01/27 00:56:28;;;;;;;2.22;0.90;;;;;;;;;;4997365;28;20559;-56
2022/01/27 00:59:20;;;;;;;0.95;0.65;;;;;;;;;;4981830;28;20034;-55
2022/01/27 01:01:53;;;;;;;2.65;1.20;;;;;;;;;;4999603;28;20080;-55
2022/01/27 01:04:26;;;;;;;1.85;0.90;;;;;;;;;;4999952;28;20037;-56
2022/01/27 01:06:52;;;;;;;2.08;1.00;;;;;;;;;;4996622;28;20040;-56
2022/01/27 01:14:32;;;;;;;2.10;0.90;;;;;;;;;;5000211;28;20060;-56
2022/01/27 01:17:24;;;;;;;1.80;0.70;;;;;;;;;;4997577;28;20790;-56
2022/01/27 01:30:47;;;;;;;2.13;0.70;;;;;;;;;;4998932;28;20516;-55
2022/01/27 01:33:20;;;;;;;1.83;0.98;;;;;;;;;;5002583;28;20069;-54
2022/01/27 01:35:50;;;;;;;1.15;0.73;;;;;;;;;;5002268;28;20573;-56
2022/01/27 01:38:18;;;;;;;2.08;1.00;;;;;;;;;;5003964;28;20505;-61
2022/01/27 01:40:46;;;;;;;2.20;0.77;;;;;;;;;;5003131;28;20478;-54
2022/01/27 01:43:12;;;;;;;1.63;0.93;;;;;;;;;;5002164;28;20489;-55
2022/01/27 01:45:37;;;;;;;1.63;0.65;;;;;;;;;;5004756;28;20108;-57
2022/01/27 01:48:04;;;;;;;1.65;0.52;;;;;;;;;;5003122;28;20025;-56
2022/01/27 01:50:30;;;;;;;1.05;0.57;;;;;;;;;;5003773;28;20122;-55
2022/01/27 01:52:55;;;;;;;2.08;0.65;;;;;;;;;;5002942;28;20112;-56
2022/01/27 01:55:21;;;;;;;1.80;0.55;;;;;;;;;;4986045;28;20041;-56
2022/01/27 01:57:46;;;;;;;2.75;0.57;;;;;;;;;;5004875;28;20026;-56
2022/01/27 02:00:13;;;;;;;0.57;0.22;;;;;;;;;;5002358;28;20052;-51
2022/01/27 02:02:40;;;;;;;3.15;0.60;;;;;;;;;;5003812;28;20037;-56
2022/01/27 02:05:06;;;;;;;1.80;0.45;;;;;;;;;;5004615;28;20029;-57
2022/01/27 02:07:57;;;;;;;1.25;0.50;;;;;;;;;;5005276;28;20026;-54
2022/01/27 02:17:46;;;;;;;1.90;0.80;;;;;;;;;;4999203;28;20084;-57
2022/01/27 02:18:43;;;;;;;1.35;0.70;;;;;;;;;;5003535;28;20033;-55
2022/01/27 02:21:08;;;;;;;1.30;0.70;;;;;;;;;;4969948;28;20034;-57
2022/01/27 02:23:34;;;;;;;1.20;0.70;;;;;;;;;;5003331;28;20101;-56
2022/01/27 02:25:59;;;;;;;1.48;0.70;;;;;;;;;;5002789;28;20128;-54
2022/01/27 02:28:25;;;;;;;1.58;0.57;;;;;;;;;;5000093;28;20029;-56
2022/01/27 02:30:50;;;;;;;1.05;0.50;;;;;;;;;;5002986;28;20038;-57
2022/01/27 02:33:16;;;;;;;0.60;0.43;;;;;;;;;;5003207;28;20481;-56
2022/01/27 02:35:41;;;;;;;1.10;0.90;;;;;;;;;;5002417;28;20477;-57
2022/01/27 02:38:07;;;;;;;1.73;0.85;;;;;;;;;;5002148;28;20034;-57
2022/01/27 02:40:43;;;;;;;2.17;0.88;;;;;;;;;;5005540;28;20042;-55
2022/01/27 02:43:09;;;;;;;1.00;0.80;;;;;;;;;;5000993;28;20024;-55
2022/01/27 02:45:54;;;;;;;3.13;0.73;;;;;;;;;;5003770;28;20026;-56
2022/01/27 02:48:19;;;;;;;0.43;0.30;;;;;;;;;;5000608;28;20538;-54
2022/01/27 02:50:45;;;;;;;3.20;0.93;;;;;;;;;;5003378;28;20038;-55
2022/01/27 02:53:11;;;;;;;1.10;0.73;;;;;;;;;;5001139;28;20029;-54
2022/01/27 02:55:37;;;;;;;0.93;0.60;;;;;;;;;;5003980;28;20165;-55
2022/01/27 02:58:04;;;;;;;1.48;0.63;;;;;;;;;;4999905;28;20685;-56
2022/01/27 03:00:30;;;;;;;1.55;1.05;;;;;;;;;;4999243;28;20041;-57
2022/01/27 03:02:56;;;;;;;1.05;0.68;;;;;;;;;;5001858;28;20091;-56
2022/01/27 03:05:21;;;;;;;1.77;0.50;;;;;;;;;;5003933;28;20026;-56
2022/01/27 03:07:48;;;;;;;1.60;0.85;;;;;;;;;;5002021;28;20393;-54
2022/01/27 03:10:21;;;;;;;1.25;0.70;;;;;;;;;;5001657;28;20041;-54
2022/01/27 03:12:56;;;;;;;1.52;0.85;;;;;;;;;;5001342;28;20076;-54
2022/01/27 03:15:21;;;;;;;2.83;0.77;;;;;;;;;;5001977;28;20052;-57
2022/01/27 03:17:47;;;;;;;1.45;0.90;;;;;;;;;;4999732;28;20034;-56
2022/01/27 03:20:12;;;;;;;2.30;0.90;;;;;;;;;;4999377;28;20041;-57
2022/01/27 03:22:38;;;;;;;2.15;1.25;;;;;;;;;;5000051;28;20404;-57
2022/01/27 03:25:04;;;;;;;1.45;0.52;;;;;;;;;;5001703;28;20030;-57
2022/01/27 03:27:30;;;;;;;1.10;0.75;;;;;;;;;;5002495;28;20088;-57
2022/01/27 03:29:55;;;;;;;1.65;0.75;;;;;;;;;;5001331;28;20421;-56
2022/01/27 03:32:21;;;;;;;1.27;0.63;;;;;;;;;;5000488;28;20036;-57
2022/01/27 03:34:46;;;;;;;0.73;0.45;;;;;;;;;;5002541;28;20048;-57
2022/01/27 03:37:12;;;;;;;1.60;0.77;;;;;;;;;;4999410;28;20396;-57
2022/01/27 03:39:39;;;;;;;2.47;0.98;;;;;;;;;;5001995;28;20029;-56
2022/01/27 03:42:06;;;;;;;4.50;1.38;;;;;;;;;;5001711;28;20056;-55
2022/01/27 03:44:31;;;;;;;2.60;1.10;;;;;;;;;;5001480;28;20527;-57
2022/01/27 03:46:58;;;;;;;1.52;1.02;;;;;;;;;;5001394;28;20037;-53
2022/01/27 03:49:24;;;;;;;4.40;1.65;;;;;;;;;;5000545;28;20557;-56
2022/01/27 03:51:49;;;;;;;8.07;3.30;;;;;;;;;;4997819;28;20378;-56
2022/01/27 03:54:15;;;;;;;4.82;2.40;;;;;;;;;;5000393;28;20124;-56
2022/01/27 03:56:41;;;;;;;4.40;1.48;;;;;;;;;;5002779;28;20038;-56
2022/01/27 03:59:07;;;;;;;3.40;1.45;;;;;;;;;;4999078;28;20533;-57
2022/01/27 04:01:33;;;;;;;8.52;0.80;;;;;;;;;;5001540;28;20030;-57
2022/01/27 04:04:00;;;;;;;1.52;0.80;;;;;;;;;;5002259;28;20044;-57
2022/01/27 04:06:35;;;;;;;0.70;0.30;;;;;;;;;;4999006;28;20084;-57
2022/01/27 04:09:05;;;;;;;1.42;0.38;;;;;;;;;;5001471;28;20496;-57
2022/01/27 04:11:31;;;;;;;2.78;0.30;;;;;;;;;;4997576;28;20044;-58
2022/01/27 04:13:56;;;;;;;6.70;0.40;;;;;;;;;;4996100;28;20053;-50
2022/01/27 04:16:22;;;;;;;0.52;0.20;;;;;;;;;;4999502;28;20556;-58
2022/01/27 04:18:48;;;;;;;1.40;0.63;;;;;;;;;;4997446;28;20038;-56
2022/01/27 04:21:15;;;;;;;1.92;0.63;;;;;;;;;;4999966;28;20429;-56
2022/01/27 04:23:41;;;;;;;2.80;0.80;;;;;;;;;;5001888;28;20277;-56
2022/01/27 04:26:09;;;;;;;3.75;1.70;;;;;;;;;;4997488;28;20497;-56
2022/01/27 04:28:36;;;;;;;3.72;1.88;;;;;;;;;;4998444;28;20102;-53
2022/01/27 04:31:05;;;;;;;4.07;2.20;;;;;;;;;;4997617;28;20026;-55
2022/01/27 04:33:33;;;;;;;4.47;1.70;;;;;;;;;;5001008;28;20421;-55
2022/01/27 04:36:02;;;;;;;4.32;1.42;;;;;;;;;;4998174;28;20038;-56
2022/01/27 04:39:34;;;;;;;5.22;2.20;;;;;;;;;;4997698;28;20066;-55
2022/01/27 04:41:43;;;;;;;4.55;1.75;;;;;;;;;;4984408;28;20058;-57
2022/01/27 04:44:26;;;;;;;6.07;1.98;;;;;;;;;;4998217;28;20485;-57
2022/01/27 04:47:04;;;;;;;8.02;2.22;;;;;;;;;;5001981;28;20034;-57
2022/01/27 04:49:29;;;;;;;9.57;2.17;;;;;;;;;;5001470;28;20033;-57
2022/01/27 04:51:55;;;;;;;8.55;2.67;;;;;;;;;;4996420;28;20548;-57
2022/01/27 04:56:49;;;;;;;8.23;2.85;;;;;;;;;;4999794;28;20033;-57
2022/01/27 04:59:19;;;;;;;4.65;2.05;;;;;;;;;;5002271;28;20042;-57
2022/01/27 05:01:51;;;;;;;12.88;2.50;;;;;;;;;;4998224;28;20041;-57
2022/01/27 05:04:19;;;;;;;6.63;1.52;;;;;;;;;;5000281;28;20827;-57
2022/01/27 05:06:47;;;;;;;16.10;2.38;;;;;;;;;;4984309;28;20085;-57
2022/01/27 05:09:13;;;;;;;4.97;1.60;;;;;;;;;;5005239;28;20065;-57
2022/01/27 05:11:47;;;;;;;7.57;1.40;;;;;;;;;;5008329;28;20448;-57
2022/01/27 05:14:23;;;;;;;4.22;1.33;;;;;;;;;;5004282;28;20111;-57
2022/01/27 05:16:48;;;;;;;6.70;1.48;;;;;;;;;;5003666;28;20034;-57
2022/01/27 05:19:14;;;;;;;6.38;0.80;;;;;;;;;;5004036;28;20543;-57
2022/01/27 05:21:40;;;;;;;7.15;1.17;;;;;;;;;;5007482;28;20061;-57
2022/01/27 05:24:06;;;;;;;7.72;0.63;;;;;;;;;;5007677;28;23650;-57
2022/01/27 05:26:33;;;;;;;7.40;0.95;;;;;;;;;;5004776;28;20382;-57
2022/01/27 05:28:59;;;;;;;6.53;0.88;;;;;;;;;;5005545;28;20099;-57
2022/01/27 05:31:25;;;;;;;4.65;0.93;;;;;;;;;;5007606;28;20407;-57
2022/01/27 05:33:50;;;;;;;6.82;0.77;;;;;;;;;;4991308;28;20033;-57
2022/01/27 05:36:16;;;;;;;3.22;0.50;;;;;;;;;;4986540;28;20088;-57
2022/01/27 05:38:41;;;;;;;10.38;1.20;;;;;;;;;;5008154;28;20030;-57
2022/01/27 05:41:07;;;;;;;8.65;1.02;;;;;;;;;;5007074;28;20362;-55
2022/01/27 05:43:33;;;;;;;11.85;0.90;;;;;;;;;;5009449;28;20384;-54
2022/01/27 05:45:59;;;;;;;3.65;1.13;;;;;;;;;;5005468;28;20038;-55
2022/01/27 05:48:24;;;;;;;18.73;1.38;;;;;;;;;;5003455;28;20481;-57
2022/01/27 05:50:50;;;;;;;12.68;1.10;;;;;;;;;;5006377;28;20037;-57
2022/01/27 05:53:15;;;;;;;8.05;0.55;;;;;;;;;;5001731;28;20065;-57
2022/01/27 05:55:41;;;;;;;19.80;1.23;;;;;;;;;;5008978;28;20355;-55
2022/01/27 05:58:06;;;;;;;11.20;0.80;;;;;;;;;;5007073;28;20452;-57
2022/01/27 06:00:32;;;;;;;7.30;0.70;;;;;;;;;;5001799;28;20435;-57
2022/01/27 06:02:58;;;;;;;12.93;1.15;;;;;;;;;;5004475;28;20034;-57
2022/01/27 06:05:24;;;;;;;17.63;1.63;;;;;;;;;;5003591;28;20037;-57
2022/01/27 06:07:49;;;;;;;8.95;0.60;;;;;;;;;;5008406;28;20508;-57
2022/01/27 06:10:15;;;;;;;15.70;0.98;;;;;;;;;;5006219;28;20026;-57
2022/01/27 06:12:52;;;;;;;18.98;1.30;;;;;;;;;;5006397;28;20484;-57
2022/01/27 06:15:21;;;;;;;8.23;0.35;;;;;;;;;;5004195;28;20025;-58
2022/01/27 06:17:47;;;;;;;9.25;0.50;;;;;;;;;;5002035;28;20145;-57
2022/01/27 06:20:13;;;;;;;20.77;1.30;;;;;;;;;;5004251;28;20057;-56
2022/01/27 06:22:39;;;;;;;13.38;1.23;;;;;;;;;;5003759;28;20781;-57
2022/01/27 06:25:05;;;;;;;19.55;1.60;;;;;;;;;;5002977;28;20112;-57
2022/01/27 06:27:30;;;;;;;17.10;1.17;;;;;;;;;;5002361;28;20026;-57
2022/01/27 06:29:56;;;;;;;14.52;0.77;;;;;;;;;;5001912;28;20056;-57
2022/01/27 06:32:21;;;;;;;12.50;0.73;;;;;;;;;;5000022;28;20026;-57
2022/01/27 06:34:47;;;;;;;9.32;1.00;;;;;;;;;;5001644;28;20034;-57
2022/01/27 06:37:13;;;;;;;16.15;1.55;;;;;;;;;;5000352;28;20579;-57
2022/01/27 06:39:39;;;;;;;13.85;0.88;;;;;;;;;;5001043;28;20033;-57
2022/01/27 06:42:07;;;;;;;18.13;1.38;;;;;;;;;;4984016;28;20045;-57
2022/01/27 06:44:33;;;;;;;19.35;1.55;;;;;;;;;;5003565;28;20117;-57
2022/01/27 06:46:58;;;;;;;21.70;1.70;;;;;;;;;;4986582;28;20531;-57
2022/01/27 06:49:24;;;;;;;10.88;0.63;;;;;;;;;;5001127;28;20044;-57
2022/01/27 06:51:49;;;;;;;7.07;1.30;;;;;;;;;;5000549;28;20030;-57
2022/01/27 06:54:16;;;;;;;10.10;1.60;;;;;;;;;;4998261;28;20482;-57
2022/01/27 06:56:42;;;;;;;10.10;1.83;;;;;;;;;;4982340;28;20164;-57
2022/01/27 06:59:07;;;;;;;21.05;0.90;;;;;;;;;;4995168;28;20125;-57
2022/01/27 07:01:33;;;;;;;18.30;1.48;;;;;;;;;;5002859;28;20099;-56
2022/01/27 07:03:58;;;;;;;15.27;1.55;;;;;;;;;;4998047;28;20045;-57
2022/01/27 07:06:24;;;;;;;13.00;1.20;;;;;;;;;;5001159;28;20033;-57
2022/01/27 07:08:50;;;;;;;24.30;1.98;;;;;;;;;;4999123;28;20021;-57
2022/01/27 07:11:15;;;;;;;15.45;1.25;;;;;;;;;;5001589;28;20075;-57
2022/01/27 07:13:41;;;;;;;19.48;1.27;;;;;;;;;;5000160;28;20122;-57
2022/01/27 07:16:07;;;;;;;7.57;0.60;;;;;;;;;;5002457;28;20397;-57
2022/01/27 07:18:33;;;;;;;15.75;1.15;;;;;;;;;;5001134;28;20038;-57
2022/01/27 07:20:58;;;;;;;7.63;1.02;;;;;;;;;;4999982;28;20394;-57
2022/01/27 07:23:24;;;;;;;6.38;1.23;;;;;;;;;;5001997;28;20312;-54
2022/01/27 07:25:49;;;;;;;12.85;1.33;;;;;;;;;;5001890;28;20052;-55
2022/01/27 07:28:15;;;;;;;24.67;1.75;;;;;;;;;;5001020;28;20025;-54
2022/01/27 07:30:40;;;;;;;15.25;1.05;;;;;;;;;;5001701;28;20425;-52
2022/01/27 07:33:06;;;;;;;12.35;1.17;;;;;;;;;;5001463;28;20046;-56
2022/01/27 07:35:32;;;;;;;16.17;1.45;;;;;;;;;;4997662;28;20033;-56
2022/01/27 07:37:57;;;;;;;10.93;0.80;;;;;;;;;;5005935;28;20029;-55
2022/01/27 07:40:23;;;;;;;7.82;0.60;;;;;;;;;;4998619;28;20124;-55
2022/01/27 07:42:48;;;;;;;11.85;0.45;;;;;;;;;;5000610;28;20034;-55
2022/01/27 07:45:14;;;;;;;19.10;1.70;;;;;;;;;;4998545;28;20299;-56
2022/01/27 07:47:40;;;;;;;10.48;1.45;;;;;;;;;;4996007;28;20552;-56
2022/01/27 07:50:06;;;;;;;9.00;0.55;;;;;;;;;;5000834;28;20033;-56
2022/01/27 07:52:31;;;;;;;11.65;1.00;;;;;;;;;;5004020;28;20587;-56
2022/01/27 07:54:57;;;;;;;18.40;1.33;;;;;;;;;;5001487;28;20045;-57
2022/01/27 07:57:22;;;;;;;9.32;2.25;;;;;;;;;;4997628;28;20040;-56
2022/01/27 07:59:48;;;;;;;12.35;0.77;;;;;;;;;;5002430;28;20423;-56
2022/01/27 08:02:13;;;;;;;6.22;0.43;;;;;;;;;;5001793;28;20052;-56
2022/01/27 08:04:39;;;;;;;12.80;0.73;;;;;;;;;;5005989;28;20574;-56
2022/01/27 08:07:04;;;;;;;13.02;1.08;;;;;;;;;;4995997;28;20044;-56
2022/01/27 08:09:30;;;;;;;21.10;2.08;;;;;;;;;;4998863;28;20057;-55
2022/01/27 08:11:56;;;;;;;11.82;1.25;;;;;;;;;;5003499;28;20072;-55
2022/01/27 08:14:21;;;;;;;34.80;4.70;;;;;;;;;;4999684;28;20429;-56
2022/01/27 08:16:47;;;;;;;18.52;2.47;;;;;;;;;;4998837;28;20028;-56
2022/01/27 08:19:13;;;;;;;14.90;1.20;;;;;;;;;;5002147;28;20382;-55
2022/01/27 08:21:38;;;;;;;18.20;1.60;;;;;;;;;;4998976;28;20038;-52
2022/01/27 08:24:04;;;;;;;10.80;1.15;;;;;;;;;;5000553;28;20050;-53
2022/01/27 08:29:41;;;;;;;23.67;3.92;;;;;;;;;;5000265;28;20030;-55
2022/01/27 08:32:02;;;;;;;17.48;2.45;;;;;;;;;;4995050;28;20141;-54
2022/01/27 08:34:37;;;;;;;21.48;1.70;;;;;;;;;;5000566;28;20294;-56
2022/01/27 08:37:10;;;;;;;18.98;1.77;;;;;;;;;;5002964;28;20140;-55
2022/01/27 08:39:37;;;;;;;12.45;1.45;;;;;;;;;;4998861;28;20480;-55
2022/01/27 08:42:04;;;;;;;9.48;1.20;;;;;;;;;;5001327;28;20049;-56
2022/01/27 08:44:30;;;;;;;20.40;1.88;;;;;;;;;;4999631;28;20040;-55
2022/01/27 08:46:55;;;;;;;23.88;1.67;;;;;;;;;;5003471;28;20037;-56
2022/01/27 08:49:24;;;;;;;24.52;2.15;;;;;;;;;;4980310;28;20095;-57
2022/01/27 08:51:49;;;;;;;9.98;1.20;;;;;;;;;;4997327;28;20142;-56
2022/01/27 08:54:15;;;;;;;13.02;1.60;;;;;;;;;;5001650;28;20038;-56
2022/01/27 08:56:41;;;;;;;12.68;1.65;;;;;;;;;;4981058;28;20111;-56
2022/01/27 08:59:07;;;;;;;23.88;1.88;;;;;;;;;;5004331;28;20029;-56
2022/01/27 09:01:32;;;;;;;15.13;1.55;;;;;;;;;;5002366;28;20076;-56
2022/01/27 09:03:58;;;;;;;18.20;1.65;;;;;;;;;;5003211;28;20037;-56
2022/01/27 09:06:24;;;;;;;21.85;1.27;;;;;;;;;;4999805;28;20033;-56
2022/01/27 09:08:50;;;;;;;11.55;2.05;;;;;;;;;;4987271;28;20042;-56
2022/01/27 09:11:17;;;;;;;20.80;1.45;;;;;;;;;;4995505;28;20037;-57
2022/01/27 09:13:42;;;;;;;16.02;1.67;;;;;;;;;;4995266;28;20037;-56
2022/01/27 09:16:09;;;;;;;16.65;2.13;;;;;;;;;;4999026;28;20089;-56
2022/01/27 09:18:35;;;;;;;22.30;1.80;;;;;;;;;;5000858;28;20137;-56
2022/01/27 09:21:06;;;;;;;27.17;2.00;;;;;;;;;;4998572;28;20276;-56
2022/01/27 09:23:33;;;;;;;20.10;1.95;;;;;;;;;;4996524;28;20046;-56
2022/01/27 09:26:04;;;;;;;17.55;2.28;;;;;;;;;;4998124;28;20083;-56
2022/01/27 09:28:29;;;;;;;17.67;2.10;;;;;;;;;;4998895;28;20038;-57
2022/01/27 09:30:56;;;;;;;12.98;1.45;;;;;;;;;;4999761;28;20064;-56
2022/01/27 09:33:21;;;;;;;12.25;1.95;;;;;;;;;;4998796;28;20073;-56
2022/01/27 09:35:47;;;;;;;17.85;1.88;;;;;;;;;;4996624;28;20409;-56
2022/01/27 09:38:13;;;;;;;18.23;2.05;;;;;;;;;;5000600;28;20212;-55
2022/01/27 09:40:42;;;;;;;22.63;3.40;;;;;;;;;;4996829;28;20038;-56
2022/01/27 09:43:08;;;;;;;33.05;2.30;;;;;;;;;;4979765;28;20097;-55
2022/01/27 09:45:38;;;;;;;12.98;1.42;;;;;;;;;;4995319;28;20125;-56
2022/01/27 09:48:12;;;;;;;18.05;1.55;;;;;;;;;;5001967;28;20033;-56
2022/01/27 09:53:08;;;;;;;17.02;1.70;;;;;;;;;;4998722;28;20109;-56
2022/01/27 09:55:33;;;;;;;15.10;1.17;;;;;;;;;;4998990;28;20050;-54
2022/01/27 09:58:01;;;;;;;17.67;1.70;;;;;;;;;;5004011;28;20635;-55
2022/01/27 10:00:27;;;;;;;19.27;2.38;;;;;;;;;;5003221;28;20180;-56
2022/01/27 10:03:09;;;;;;;19.40;1.92;;;;;;;;;;5001580;28;20070;-56
2022/01/27 10:05:37;;;;;;;35.75;2.75;;;;;;;;;;5001909;28;20030;-56
2022/01/27 10:08:16;;;;;;;12.85;1.83;;;;;;;;;;5002988;28;20037;-56
2022/01/27 10:10:53;;;;;;;28.90;3.00;;;;;;;;;;5002643;28;20030;-56
2022/01/27 10:13:37;;;;;;;18.30;1.33;;;;;;;;;;5000242;28;20439;-56
2022/01/27 10:16:03;;;;;;;16.15;1.65;;;;;;;;;;5003994;28;20034;-56
2022/01/27 10:18:35;;;;;;;15.27;2.05;;;;;;;;;;4998497;28;20559;-56
2022/01/27 10:21:02;;;;;;;13.93;2.13;;;;;;;;;;5002388;28;20034;-56
2022/01/27 10:23:33;;;;;;;15.07;1.23;;;;;;;;;;5006187;28;20025;-56
2022/01/27 10:26:09;;;;;;;22.17;1.70;;;;;;;;;;5005625;28;20033;-56
2022/01/27 10:29:09;;;;;;;14.90;1.17;;;;;;;;;;5003852;28;20376;-56
2022/01/27 10:31:29;;;;;;;18.38;2.30;;;;;;;;;;4996112;28;20042;-56
2022/01/27 10:34:05;;;;;;;16.83;2.17;;;;;;;;;;5002533;28;20409;-56
2022/01/27 10:36:36;;;;;;;12.27;1.55;;;;;;;;;;5000538;28;20041;-57
2022/01/27 10:39:08;;;;;;;14.30;1.27;;;;;;;;;;5005361;28;20045;-56
2022/01/27 10:41:37;;;;;;;16.27;1.52;;;;;;;;;;5000259;28;20017;-56
2022/01/27 10:44:10;;;;;;;15.18;1.50;;;;;;;;;;5002034;28;20042;-56
2022/01/27 10:46:40;;;;;;;11.98;1.33;;;;;;;;;;5002574;28;20408;-56
2022/01/27 10:49:18;;;;;;;26.60;1.50;;;;;;;;;;4997720;28;20837;-56
2022/01/27 10:51:48;;;;;;;27.00;1.50;;;;;;;;;;5004544;28;20076;-56
2022/01/27 10:54:56;;;;;;;18.15;1.20;;;;;;;;;;5003278;28;22113;-56
2022/01/27 10:57:08;;;;;;;10.70;1.55;;;;;;;;;;4985608;28;20119;-56
2022/01/27 10:59:35;;;;;;;15.80;1.98;;;;;;;;;;5003323;28;20607;-56
2022/01/27 11:02:07;;;;;;;13.40;1.90;;;;;;;;;;4999559;28;20032;-56
2022/01/27 11:04:35;;;;;;;8.15;2.10;;;;;;;;;;5007465;28;20524;-55
2022/01/27 11:07:03;;;;;;;10.68;1.00;;;;;;;;;;5003532;28;20087;-55
2022/01/27 11:09:36;;;;;;;16.05;0.98;;;;;;;;;;5002223;28;20030;-56
2022/01/27 11:12:14;;;;;;;19.27;2.03;;;;;;;;;;5001147;28;20033;-54
2022/01/27 11:14:40;;;;;;;16.67;1.63;;;;;;;;;;5002582;28;20192;-56
2022/01/27 11:17:10;;;;;;;5.50;0.47;;;;;;;;;;5000002;28;20099;-53
2022/01/27 11:27:32;;;;;;;14.82;1.50;;;;;;;;;;5002763;28;20038;-56
2022/01/27 11:30:32;;;;;;;12.07;1.35;;;;;;;;;;4997877;28;20041;-56
2022/01/27 11:33:08;;;;;;;7.88;1.15;;;;;;;;;;4959756;28;20092;-53
2022/01/27 11:35:34;;;;;;;12.02;1.55;;;;;;;;;;4998781;28;20475;-55
2022/01/27 11:38:03;;;;;;;16.80;2.70;;;;;;;;;;5000900;28;20033;-55
2022/01/27 11:40:39;;;;;;;12.07;1.60;;;;;;;;;;5004184;28;20032;-56
2022/01/27 11:43:07;;;;;;;6.63;0.90;;;;;;;;;;5005653;28;20104;-57
2022/01/27 11:45:37;;;;;;;8.20;1.02;;;;;;;;;;5001752;28;20500;-56
2022/01/27 11:48:08;;;;;;;12.32;1.75;;;;;;;;;;4998802;28;20889;-56
2022/01/27 11:50:39;;;;;;;14.40;0.97;;;;;;;;;;5003154;28;20056;-56
2022/01/27 11:53:07;;;;;;;33.70;2.28;;;;;;;;;;5000751;28;20410;-56
2022/01/27 11:55:32;;;;;;;15.95;1.88;;;;;;;;;;5000118;28;20502;-56
2022/01/27 11:58:00;;;;;;;22.50;2.15;;;;;;;;;;4999810;28;20057;-56
2022/01/27 12:00:28;;;;;;;14.70;1.58;;;;;;;;;;5001974;28;20033;-56
2022/01/27 12:02:56;;;;;;;7.55;1.17;;;;;;;;;;5003633;28;20040;-56
2022/01/27 12:05:26;;;;;;;18.88;1.40;;;;;;;;;;5001217;28;20163;-54
2022/01/27 12:08:26;;;;;;;18.83;1.52;;;;;;;;;;5001689;28;20064;-56
2022/01/27 12:10:58;;;;;;;12.27;1.23;;;;;;;;;;4938299;28;20042;-55
2022/01/27 12:16:10;;;;;;;8.40;1.27;;;;;;;;;;4994840;28;21168;-56
2022/01/27 12:18:37;;;;;;;10.73;1.35;;;;;;;;;;5000444;28;20041;-55
2022/01/27 12:21:46;;;;;;;7.30;1.05;;;;;;;;;;5000271;28;20026;-55
2022/01/27 12:24:12;;;;;;;8.00;0.60;;;;;;;;;;4925807;28;20585;-55
2022/01/27 12:26:59;;;;;;;4.80;0.40;;;;;;;;;;4941473;28;20522;-55
2022/01/27 12:29:30;;;;;;;7.03;0.82;;;;;;;;;;4976864;28;20053;-56
2022/01/27 12:32:02;;;;;;;2.17;0.23;;;;;;;;;;5000601;28;20492;-56
2022/01/27 12:34:29;;;;;;;2.00;0.35;;;;;;;;;;4998160;28;20109;-55
2022/01/27 12:37:18;;;;;;;4.95;0.63;;;;;;;;;;5001890;28;20444;-55
2022/01/27 12:39:58;;;;;;;7.13;0.50;;;;;;;;;;4997948;28;20045;-56
2022/01/27 12:42:31;;;;;;;7.68;0.65;;;;;;;;;;4997063;28;20133;-54
2022/01/27 12:44:59;;;;;;;4.65;0.70;;;;;;;;;;5002279;28;20030;-53
2022/01/27 12:47:27;;;;;;;9.93;0.60;;;;;;;;;;4999361;28;20029;-55
2022/01/27 12:50:05;;;;;;;7.43;1.27;;;;;;;;;;5000196;28;20543;-55
2022/01/27 12:52:38;;;;;;;7.82;0.82;;;;;;;;;;5000697;28;20034;-56
2022/01/27 12:55:04;;;;;;;6.85;0.70;;;;;;;;;;4998956;28;20026;-56
2022/01/27 12:57:32;;;;;;;19.55;2.30;;;;;;;;;;5001991;28;20114;-56
2022/01/27 13:00:00;;;;;;;15.68;0.93;;;;;;;;;;5001877;28;20033;-56
2022/01/27 13:02:27;;;;;;;4.53;0.60;;;;;;;;;;4997980;28;20030;-57
2022/01/27 13:04:56;;;;;;;9.05;0.88;;;;;;;;;;4998601;28;20053;-56
2022/01/27 13:07:23;;;;;;;7.47;1.55;;;;;;;;;;4996693;28;20388;-57
2022/01/27 13:10:06;;;;;;;3.90;0.85;;;;;;;;;;4998272;28;20116;-56
2022/01/27 13:12:42;;;;;;;3.85;0.73;;;;;;;;;;4995444;28;21457;-56
2022/01/27 13:15:14;;;;;;;8.75;0.85;;;;;;;;;;4999689;28;20080;-56
2022/01/27 13:17:49;;;;;;;5.55;0.75;;;;;;;;;;4997455;28;20030;-56
2022/01/27 13:23:07;;;;;;;3.53;0.52;;;;;;;;;;5001904;28;20395;-56
2022/01/27 13:25:39;;;;;;;11.65;0.60;;;;;;;;;;4994722;28;20494;-57
2022/01/27 13:28:08;;;;;;;6.00;0.82;;;;;;;;;;5002766;28;20057;-57
2022/01/27 13:30:35;;;;;;;6.47;0.57;;;;;;;;;;4990883;28;20140;-57
2022/01/27 13:33:02;;;;;;;11.80;0.45;;;;;;;;;;5004255;28;20092;-57
2022/01/27 13:35:28;;;;;;;2.95;0.43;;;;;;;;;;5000489;28;20030;-58
2022/01/27 13:37:57;;;;;;;6.63;0.50;;;;;;;;;;5004187;28;20915;-57
2022/01/27 13:43:13;;;;;;;7.70;1.13;;;;;;;;;;5000488;28;20053;-55
2022/01/27 13:45:39;;;;;;;5.30;0.47;;;;;;;;;;4999568;28;20046;-56
2022/01/27 13:48:23;;;;;;;10.18;0.95;;;;;;;;;;5007323;28;20061;-56
2022/01/27 13:51:00;;;;;;;7.18;0.60;;;;;;;;;;5006019;28;20034;-56
2022/01/27 13:53:26;;;;;;;5.10;0.55;;;;;;;;;;5001897;28;20026;-56
2022/01/27 13:56:04;;;;;;;9.95;1.83;;;;;;;;;;5002225;28;20033;-56
2022/01/27 13:58:30;;;;;;;8.18;0.60;;;;;;;;;;5000153;28;20440;-54
2022/01/27 14:01:09;;;;;;;2.47;0.50;;;;;;;;;;4986858;28;20397;-54
2022/01/27 14:03:46;;;;;;;4.85;0.80;;;;;;;;;;4985041;28;20042;-55
2022/01/27 14:06:13;;;;;;;6.55;0.70;;;;;;;;;;4998635;28;20549;-55
2022/01/27 14:08:45;;;;;;;9.80;0.70;;;;;;;;;;5001769;28;20056;-55
2022/01/27 14:11:18;;;;;;;0.65;0.00;;;;;;;;;;4998398;28;20026;-56
2022/01/27 14:13:57;;;;;;;8.88;1.42;;;;;;;;;;5003576;28;20053;-56
2022/01/27 14:16:27;;;;;;;3.67;0.60;;;;;;;;;;4999589;28;20045;-55
2022/01/27 14:18:55;;;;;;;2.67;0.40;;;;;;;;;;5001660;28;20489;-55
2022/01/27 14:21:25;;;;;;;5.22;0.63;;;;;;;;;;4996015;28;20026;-56
2022/01/27 14:24:08;;;;;;;2.60;0.20;;;;;;;;;;4999711;28;20104;-57
2022/01/27 14:26:40;;;;;;;8.05;1.08;;;;;;;;;;5003369;28;20038;-52
2022/01/27 14:29:08;;;;;;;3.33;0.60;;;;;;;;;;5000103;28;20021;-56
2022/01/27 14:31:35;;;;;;;3.50;0.50;;;;;;;;;;4999265;28;20200;-55
2022/01/27 14:34:01;;;;;;;7.30;0.43;;;;;;;;;;5000092;28;20456;-55
2022/01/27 14:36:27;;;;;;;2.75;0.32;;;;;;;;;;4983897;28;20029;-56
2022/01/27 14:38:54;;;;;;;4.93;0.75;;;;;;;;;;5005949;28;20060;-56
2022/01/27 14:41:22;;;;;;;4.43;0.80;;;;;;;;;;4998273;28;20449;-56
2022/01/27 14:43:49;;;;;;;6.82;1.10;;;;;;;;;;5001437;28;20057;-56
2022/01/27 14:46:21;;;;;;;6.70;0.85;;;;;;;;;;4999158;28;20037;-56
2022/01/27 14:48:53;;;;;;;2.15;0.52;;;;;;;;;;5002364;28;20034;-54
2022/01/27 14:51:20;;;;;;;9.00;1.40;;;;;;;;;;4983262;28;20091;-56
2022/01/27 14:53:47;;;;;;;4.20;1.08;;;;;;;;;;5001645;28;20119;-55
2022/01/27 14:56:13;;;;;;;5.07;0.90;;;;;;;;;;5004450;28;20179;-56
2022/01/27 14:58:38;;;;;;;8.45;1.17;;;;;;;;;;5001161;28;20029;-55
2022/01/27 15:01:04;;;;;;;5.60;1.13;;;;;;;;;;5000135;28;20564;-55
2022/01/27 15:03:30;;;;;;;8.93;1.60;;;;;;;;;;5001600;28;20042;-56
2022/01/27 15:05:56;;;;;;;8.02;2.03;;;;;;;;;;5000986;28;20054;-56
2022/01/27 15:08:21;;;;;;;6.55;0.70;;;;;;;;;;4994297;28;20029;-60
2022/01/27 15:10:47;;;;;;;6.43;1.05;;;;;;;;;;5000214;28;20060;-60
2022/01/27 15:13:13;;;;;;;5.28;1.55;;;;;;;;;;4998591;28;20553;-58
2022/01/27 15:21:08;;;;;;;4.72;1.70;;;;;;;;;;5002187;28;20044;-56
2022/01/27 15:23:35;;;;;;;4.82;0.95;;;;;;;;;;4995946;28;20030;-55
2022/01/27 15:26:02;;;;;;;3.95;0.50;;;;;;;;;;5001027;28;20547;-55
2022/01/27 15:28:28;;;;;;;7.70;1.10;;;;;;;;;;4977908;28;20034;-56
2022/01/27 15:30:56;;;;;;;4.32;0.80;;;;;;;;;;5001604;28;20048;-57
2022/01/27 15:33:23;;;;;;;6.05;0.80;;;;;;;;;;5001811;28;20694;-56
2022/01/27 15:35:49;;;;;;;4.35;1.00;;;;;;;;;;5000483;28;20069;-56
2022/01/27 15:38:15;;;;;;;12.13;1.88;;;;;;;;;;4997294;28;20026;-57
2022/01/27 15:40:42;;;;;;;12.85;2.20;;;;;;;;;;4996337;28;20373;-56
2022/01/27 15:43:09;;;;;;;7.05;2.15;;;;;;;;;;5001655;28;20025;-56